createdAt,value
2019-02-06T00:03:24.912Z,52.37
2019-02-06T00:08:30.003Z,51.17
2019-02-06T00:13:35.276Z,48.83
2019-02-06T00:18:40.361Z,49.13
2019-02-06T00:23:45.464Z,51.67
2019-02-06T00:28:50.893Z,48.70
2019-02-06T00:33:55.946Z,45.37
2019-02-06T00:39:00.997Z,45.60
2019-02-06T00:44:08.064Z,48.70
2019-02-06T00:49:13.262Z,45.50
2019-02-06T00:54:20.546Z,44.97
2019-02-06T00:59:25.823Z,45.63
2019-02-06T01:04:30.841Z,45.97
2019-02-06T01:09:35.937Z,49.13
2019-02-06T01:14:41.075Z,48.70
2019-02-06T01:19:46.215Z,43.03
2019-02-06T01:24:51.491Z,47.90
2019-02-06T01:29:56.578Z,53.37
2019-02-06T01:35:01.699Z,42.70
2019-02-06T01:40:08.953Z,51.77
2019-02-06T01:45:15.638Z,49.47
2019-02-06T01:50:20.783Z,45.27
2019-02-06T01:55:26.152Z,49.43
2019-02-06T02:00:31.829Z,46.57
2019-02-06T02:05:37.972Z,45.00
2019-02-06T02:10:43.213Z,48.53
2019-02-06T02:15:48.365Z,50.13
2019-02-06T02:20:54.611Z,50.90
2019-02-06T02:25:59.672Z,51.93
2019-02-06T02:31:04.803Z,52.07
2019-02-06T02:36:15.637Z,52.00
2019-02-06T02:41:17.805Z,57.57
2019-02-06T02:46:22.772Z,51.50
2019-02-06T02:51:28.487Z,53.20
2019-02-06T02:56:33.619Z,53.37
2019-02-06T03:01:50.915Z,50.77
2019-02-06T03:07:05.358Z,52.90
2019-02-06T03:12:10.799Z,54.70
2019-02-06T03:17:15.749Z,53.13
2019-02-06T03:22:22.003Z,54.37
2019-02-06T03:27:27.687Z,56.57
2019-02-06T03:32:32.801Z,54.97
2019-02-06T03:37:38.227Z,58.73
2019-02-06T03:42:43.246Z,61.73
2019-02-06T03:47:48.615Z,58.27
2019-02-06T03:52:56.833Z,53.37
2019-02-06T03:58:01.996Z,55.83
2019-02-06T04:03:07.127Z,56.37
2019-02-06T04:08:12.334Z,61.37
2019-02-06T04:13:17.676Z,56.73
2019-02-06T04:18:23.050Z,58.00
2019-02-06T04:23:28.393Z,61.33
2019-02-06T04:28:33.403Z,55.43
2019-02-06T04:33:39.462Z,58.67
2019-02-06T04:38:44.517Z,60.37
2019-02-06T04:43:49.652Z,61.40
2019-02-06T04:48:54.942Z,60.50
2019-02-06T04:54:01.002Z,62.50
2019-02-06T04:59:06.062Z,60.80
2019-02-06T05:04:12.772Z,61.27
2019-02-06T05:09:20.330Z,60.77
2019-02-06T05:14:25.459Z,58.83
2019-02-06T05:19:30.775Z,62.17
2019-02-06T05:24:37.438Z,62.87
2019-02-06T05:29:45.138Z,63.10
2019-02-06T05:34:50.403Z,63.37
2019-02-06T05:39:55.704Z,62.67
2019-02-06T05:45:00.978Z,61.67
2019-02-06T05:50:13.522Z,62.20
2019-02-06T05:55:19.885Z,59.50
2019-02-06T06:00:31.376Z,65.30
2019-02-06T06:05:36.558Z,65.33
2019-02-06T06:10:42.067Z,63.87
2019-02-06T06:15:47.412Z,62.10
2019-02-06T06:20:54.655Z,60.60
2019-02-06T06:25:59.715Z,57.60
2019-02-06T06:31:04.930Z,57.53
2019-02-06T06:36:10.532Z,63.33
2019-02-06T06:41:15.971Z,66.07
2019-02-06T06:46:21.469Z,57.60
2019-02-06T06:51:26.567Z,62.13
2019-02-06T06:56:31.848Z,61.57
2019-02-06T07:01:37.416Z,58.63
2019-02-06T07:06:42.596Z,52.33
2019-02-06T07:11:48.722Z,55.83
2019-02-06T07:16:53.982Z,56.47
2019-02-06T07:21:59.588Z,54.13
2019-02-06T07:27:05.780Z,59.27
2019-02-06T07:32:16.354Z,53.20
2019-02-06T07:37:22.054Z,54.40
2019-02-06T07:42:27.496Z,51.93
2019-02-06T07:47:41.286Z,53.10
2019-02-06T07:52:52.716Z,52.60
2019-02-06T07:58:05.050Z,49.00
2019-02-06T08:03:22.554Z,47.73
2019-02-06T08:08:36.055Z,46.40
2019-02-06T08:13:38.573Z,42.17
2019-02-06T08:18:43.806Z,45.53
2019-02-06T08:23:52.477Z,42.60
2019-02-06T08:29:01.282Z,41.00
2019-02-06T08:34:12.060Z,39.23
2019-02-06T08:39:20.356Z,43.53
2019-02-06T08:44:26.280Z,45.13
2019-02-06T08:49:31.462Z,43.30
2019-02-06T08:54:45.168Z,39.37
2019-02-06T08:59:52.277Z,35.80
2019-02-06T09:04:58.877Z,38.73
2019-02-06T09:10:08.099Z,40.37
2019-02-06T09:15:17.158Z,44.53
2019-02-06T09:20:24.520Z,36.23
2019-02-06T09:25:40.806Z,35.57
2019-02-06T09:30:46.186Z,39.43
2019-02-06T09:35:52.744Z,46.33
2019-02-06T09:41:04.145Z,42.17
2019-02-06T09:46:17.795Z,35.83
2019-02-06T09:51:46.137Z,34.90
2019-02-06T09:57:09.508Z,39.10
2019-02-06T10:02:18.429Z,38.33
2019-02-06T10:07:24.178Z,38.30
2019-02-06T10:12:35.371Z,39.63
2019-02-06T10:17:40.871Z,42.07
2019-02-06T10:22:52.945Z,38.87
2019-02-06T10:27:58.810Z,39.33
2019-02-06T10:33:19.267Z,39.07
2019-02-06T10:38:44.052Z,38.40
2019-02-06T10:43:53.842Z,34.07
2019-02-06T10:49:04.927Z,37.17
2019-02-06T10:54:14.635Z,35.57
2019-02-06T10:59:23.773Z,35.03
2019-02-06T11:04:31.188Z,36.87
2019-02-06T11:09:45.993Z,34.37
2019-02-06T11:14:46.502Z,34.67
2019-02-06T11:19:51.833Z,32.43
2019-02-06T11:25:04.951Z,35.90
2019-02-06T11:30:13.815Z,36.70
2019-02-06T11:35:30.968Z,36.83
2019-02-06T11:40:58.087Z,34.53
2019-02-06T11:46:11.035Z,34.40
2019-02-06T11:51:16.968Z,32.33
2019-02-06T11:56:22.775Z,32.50
2019-02-06T12:01:32.298Z,31.03
2019-02-06T12:06:37.546Z,30.47
2019-02-06T12:11:48.416Z,29.55
2019-02-06T12:16:55.734Z,29.90
2019-02-06T12:22:01.166Z,30.33
2019-02-06T12:27:07.125Z,31.50
2019-02-06T12:32:24.167Z,34.53
2019-02-06T12:37:32.230Z,35.50
2019-02-06T12:42:38.402Z,35.37
2019-02-06T12:47:44.496Z,29.53
2019-02-06T12:52:50.092Z,28.47
2019-02-06T12:57:57.024Z,30.37
2019-02-06T13:03:02.644Z,30.60
2019-02-06T13:08:09.337Z,31.90
2019-02-06T13:13:14.563Z,29.80
2019-02-06T13:18:24.878Z,29.77
2019-02-06T13:23:31.110Z,28.57
2019-02-06T13:28:36.316Z,27.53
2019-02-06T13:33:44.364Z,30.17
2019-02-06T14:41:50.956Z,23.53
2019-02-06T14:47:28.660Z,24.43
2019-02-06T14:53:19.914Z,27.83
2019-02-06T14:59:07.525Z,30.40
2019-02-06T15:04:36.076Z,30.83
2019-02-06T15:10:11.185Z,30.30
2019-02-06T15:15:30.299Z,31.73
2019-02-06T15:20:57.883Z,34.93
2019-02-06T15:26:49.291Z,28.07
2019-02-06T15:32:55.698Z,30.57
2019-02-06T15:38:44.985Z,29.77
2019-02-06T15:44:06.336Z,29.33
2019-02-06T15:49:46.574Z,31.77
2019-02-06T15:55:41.162Z,27.40
2019-02-06T16:01:42.478Z,31.07
2019-02-06T16:07:20.881Z,26.63
2019-02-06T16:12:49.655Z,27.90
2019-02-06T16:18:09.393Z,30.83
2019-02-06T16:23:59.058Z,29.33
2019-02-06T16:30:00.317Z,27.87
2019-02-06T16:35:45.474Z,30.20
2019-02-06T16:41:20.324Z,28.43
2019-02-06T16:47:23.242Z,35.33
2019-02-06T16:53:10.390Z,36.37
2019-02-06T16:58:45.974Z,34.87
2019-02-06T17:04:16.231Z,32.23
2019-02-06T17:10:15.995Z,36.10
2019-02-06T17:16:02.063Z,33.13
2019-02-06T17:21:52.238Z,36.43
2019-02-06T17:27:27.533Z,34.90
2019-02-06T17:33:13.110Z,33.37
2019-02-06T17:39:09.372Z,31.97
2019-02-06T17:44:57.850Z,34.83
2019-02-06T17:50:51.004Z,34.17
2019-02-06T17:56:05.642Z,35.13
2019-02-06T18:01:40.540Z,31.10
2019-02-06T18:06:50.232Z,34.10
2019-02-06T18:12:14.158Z,34.03
2019-02-06T18:17:24.487Z,39.13
2019-02-06T18:22:46.404Z,50.97
2019-02-06T18:27:55.113Z,28.53
2019-02-06T18:33:11.560Z,31.47
2019-02-06T18:38:25.050Z,33.57
2019-02-06T18:43:46.642Z,32.03
2019-02-06T18:48:56.079Z,37.57
2019-02-06T18:54:02.263Z,36.30
2019-02-06T18:59:17.822Z,31.70
2019-02-06T19:05:16.069Z,32.37
2019-02-06T19:10:23.521Z,33.47
2019-02-06T19:15:58.147Z,36.27
2019-02-06T19:21:19.278Z,32.80
2019-02-06T19:26:40.097Z,34.67
2019-02-06T19:31:45.952Z,34.27
2019-02-06T19:37:16.148Z,39.40
2019-02-06T19:42:25.350Z,34.97
2019-02-06T19:47:41.700Z,37.03
2019-02-06T19:53:04.050Z,34.57
2019-02-06T19:58:19.030Z,33.70
2019-02-06T20:03:26.437Z,34.33
2019-02-06T20:08:49.214Z,35.07
2019-02-06T20:14:20.397Z,34.73
2019-02-06T20:19:25.763Z,33.43
2019-02-06T20:24:33.128Z,37.87
2019-02-06T20:29:51.439Z,34.93
2019-02-06T20:35:07.120Z,36.63
2019-02-06T20:40:19.384Z,36.30
2019-02-06T20:45:42.204Z,35.07
2019-02-06T20:50:45.540Z,38.70
2019-02-06T20:55:50.840Z,32.30
2019-02-06T21:01:00.948Z,34.47
2019-02-06T21:06:08.251Z,37.87
2019-02-06T21:11:13.915Z,39.73
2019-02-06T21:16:30.073Z,39.73
2019-02-06T21:21:37.286Z,35.40
2019-02-06T21:26:48.013Z,34.90
2019-02-06T21:31:53.834Z,36.63
2019-02-06T21:36:59.279Z,45.17
2019-02-06T21:42:04.679Z,45.37
2019-02-06T21:47:09.846Z,49.07
2019-02-06T21:52:18.096Z,43.40
2019-02-06T21:57:27.777Z,43.63
2019-02-06T22:02:34.063Z,44.37
2019-02-06T22:07:41.466Z,41.90
2019-02-06T22:12:47.791Z,37.43
2019-02-06T22:17:54.041Z,45.97
2019-02-06T22:23:00.610Z,42.80
2019-02-06T22:28:08.460Z,45.53
2019-02-06T22:33:14.298Z,44.17
2019-02-06T22:38:19.471Z,43.03
2019-02-06T22:43:25.180Z,47.50
2019-02-06T22:48:30.273Z,42.40
2019-02-06T22:53:41.475Z,43.63
2019-02-06T22:58:46.669Z,41.87
2019-02-06T23:03:56.586Z,45.80
2019-02-06T23:09:06.451Z,45.10
2019-02-06T23:14:17.535Z,42.80
2019-02-06T23:19:19.240Z,39.67
2019-02-06T23:24:27.606Z,41.70
2019-02-06T23:29:34.862Z,43.73
2019-02-06T23:34:42.626Z,40.23
2019-02-06T23:39:51.444Z,38.10
2019-02-06T23:44:57.090Z,39.53
2019-02-06T23:50:02.134Z,41.83
2019-02-06T23:55:07.510Z,44.93
